sensor_id;sensor_type;location;lat;lon;timestamp;noise_LAeq;noise_LA_min;noise_LA_max;noise_LA01;noise_LA95
37223;Laerm;28026;48.562;14.440;2023-07-02T00:00:16;40.11;32.00;49.50;;
37223;Laerm;28026;48.562;14.440;2023-07-02T00:02:47;37.45;31.68;42.16;;
37223;Laerm;28026;48.562;14.440;2023-07-02T00:05:18;37.00;31.68;39.92;;
37223;Laerm;28026;48.562;14.440;2023-07-02T00:07:48;37.47;31.68;53.50;;
37223;Laerm;28026;48.562;14.440;2023-07-02T00:10:20;38.03;31.68;43.99;;
37223;Laerm;28026;48.562;14.440;2023-07-02T00:12:50;38.78;31.68;51.14;;
37223;Laerm;28026;48.562;14.440;2023-07-02T00:15:21;37.85;32.35;43.86;;
37223;Laerm;28026;48.562;14.440;2023-07-02T00:17:52;38.48;30.89;44.07;;
37223;Laerm;28026;48.562;14.440;2023-07-02T00:20:23;37.03;31.68;41.68;;
37223;Laerm;28026;48.562;14.440;2023-07-02T00:22:54;41.89;34.31;51.79;;
37223;Laerm;28026;48.562;14.440;2023-07-02T00:25:25;38.08;29.92;43.63;;
37223;Laerm;28026;48.562;14.440;2023-07-02T00:27:56;36.99;30.89;49.34;;
37223;Laerm;28026;48.562;14.440;2023-07-02T00:30:26;36.89;30.89;40.62;;
37223;Laerm;28026;48.562;14.440;2023-07-02T00:32:57;36.87;30.89;39.81;;
37223;Laerm;28026;48.562;14.440;2023-07-02T00:35:28;37.39;30.89;41.96;;
37223;Laerm;28026;48.562;14.440;2023-07-02T00:37:59;37.05;31.68;41.19;;
37223;Laerm;28026;48.562;14.440;2023-07-02T00:40:30;41.22;31.68;51.40;;
37223;Laerm;28026;48.562;14.440;2023-07-02T00:43:01;39.57;32.35;45.27;;
37223;Laerm;28026;48.562;14.440;2023-07-02T00:45:32;40.15;30.89;56.59;;
37223;Laerm;28026;48.562;14.440;2023-07-02T00:48:03;37.37;31.68;42.29;;
37223;Laerm;28026;48.562;14.440;2023-07-02T00:50:34;39.63;33.44;44.31;;
37223;Laerm;28026;48.562;14.440;2023-07-02T00:53:05;37.57;31.33;45.17;;
37223;Laerm;28026;48.562;14.440;2023-07-02T00:55:36;42.52;35.04;49.39;;
37223;Laerm;28026;48.562;14.440;2023-07-02T00:58:07;37.24;31.68;42.98;;
37223;Laerm;28026;48.562;14.440;2023-07-02T01:00:39;36.95;31.68;41.38;;
37223;Laerm;28026;48.562;14.440;2023-07-02T01:03:11;36.84;31.68;40.98;;
37223;Laerm;28026;48.562;14.440;2023-07-02T01:05:42;40.12;33.44;44.90;;
37223;Laerm;28026;48.562;14.440;2023-07-02T01:08:13;38.87;32.93;43.72;;
37223;Laerm;28026;48.562;14.440;2023-07-02T01:10:45;37.23;30.89;42.30;;
37223;Laerm;28026;48.562;14.440;2023-07-02T01:13:21;40.30;30.89;66.59;;
37223;Laerm;28026;48.562;14.440;2023-07-02T01:15:55;36.59;30.89;39.92;;
37223;Laerm;28026;48.562;14.440;2023-07-02T01:18:27;37.28;30.89;58.74;;
37223;Laerm;28026;48.562;14.440;2023-07-02T01:20:58;37.10;30.89;52.55;;
37223;Laerm;28026;48.562;14.440;2023-07-02T01:23:28;36.91;30.89;46.52;;
37223;Laerm;28026;48.562;14.440;2023-07-02T01:26:00;37.08;30.89;46.50;;
37223;Laerm;28026;48.562;14.440;2023-07-02T01:28:35;37.68;30.89;45.72;;
37223;Laerm;28026;48.562;14.440;2023-07-02T01:31:09;41.03;34.31;59.30;;
37223;Laerm;28026;48.562;14.440;2023-07-02T01:33:40;38.36;32.35;52.20;;
37223;Laerm;28026;48.562;14.440;2023-07-02T01:36:11;43.96;31.68;62.49;;
37223;Laerm;28026;48.562;14.440;2023-07-02T01:38:42;48.73;39.08;70.60;;
37223;Laerm;28026;48.562;14.440;2023-07-02T01:41:13;45.81;38.21;62.89;;
37223;Laerm;28026;48.562;14.440;2023-07-02T01:43:44;39.89;34.31;51.51;;
37223;Laerm;28026;48.562;14.440;2023-07-02T01:46:15;38.80;32.35;50.34;;
37223;Laerm;28026;48.562;14.440;2023-07-02T01:48:46;46.20;33.90;72.72;;
37223;Laerm;28026;48.562;14.440;2023-07-02T01:51:17;42.67;31.68;70.77;;
37223;Laerm;28026;48.562;14.440;2023-07-02T01:53:48;41.68;33.90;60.52;;
37223;Laerm;28026;48.562;14.440;2023-07-02T01:56:18;39.68;31.68;57.33;;
37223;Laerm;28026;48.562;14.440;2023-07-02T01:58:49;38.35;31.68;57.42;;
37223;Laerm;28026;48.562;14.440;2023-07-02T02:01:20;38.27;32.93;52.17;;
37223;Laerm;28026;48.562;14.440;2023-07-02T02:03:51;40.38;35.04;50.44;;
37223;Laerm;28026;48.562;14.440;2023-07-02T02:06:22;38.66;32.93;56.40;;
37223;Laerm;28026;48.562;14.440;2023-07-02T02:08:53;40.39;32.93;55.15;;
37223;Laerm;28026;48.562;14.440;2023-07-02T02:11:24;39.05;34.31;51.87;;
37223;Laerm;28026;48.562;14.440;2023-07-02T02:13:55;39.05;34.69;51.88;;
37223;Laerm;28026;48.562;14.440;2023-07-02T02:16:25;40.19;34.31;56.62;;
37223;Laerm;28026;48.562;14.440;2023-07-02T02:18:56;44.49;34.69;75.23;;
37223;Laerm;28026;48.562;14.440;2023-07-02T02:21:27;44.91;34.69;67.03;;
37223;Laerm;28026;48.562;14.440;2023-07-02T02:23:58;48.87;34.31;76.25;;
37223;Laerm;28026;48.562;14.440;2023-07-02T02:26:29;63.72;35.04;92.55;;
37223;Laerm;28026;48.562;14.440;2023-07-02T02:29:01;49.24;34.69;75.80;;
37223;Laerm;28026;48.562;14.440;2023-07-02T02:31:32;42.19;34.31;69.02;;
37223;Laerm;28026;48.562;14.440;2023-07-02T02:34:03;43.24;32.58;71.79;;
37223;Laerm;28026;48.562;14.440;2023-07-02T02:36:34;41.91;31.68;61.46;;
37223;Laerm;28026;48.562;14.440;2023-07-02T02:39:05;49.28;32.93;79.83;;
37223;Laerm;28026;48.562;14.440;2023-07-02T02:41:36;47.51;33.90;71.53;;
37223;Laerm;28026;48.562;14.440;2023-07-02T02:44:07;43.75;32.35;61.31;;
37223;Laerm;28026;48.562;14.440;2023-07-02T02:46:38;43.19;34.31;59.75;;
37223;Laerm;28026;48.562;14.440;2023-07-02T02:49:09;41.70;33.90;68.94;;
37223;Laerm;28026;48.562;14.440;2023-07-02T02:51:40;41.32;32.35;66.21;;
37223;Laerm;28026;48.562;14.440;2023-07-02T02:54:11;39.97;32.35;60.36;;
37223;Laerm;28026;48.562;14.440;2023-07-02T02:56:42;38.87;32.93;62.76;;
37223;Laerm;28026;48.562;14.440;2023-07-02T02:59:13;38.90;32.93;56.92;;
37223;Laerm;28026;48.562;14.440;2023-07-02T03:01:44;38.19;31.68;52.17;;
37223;Laerm;28026;48.562;14.440;2023-07-02T03:04:15;38.95;30.89;64.92;;
37223;Laerm;28026;48.562;14.440;2023-07-02T03:06:46;44.11;32.93;73.19;;
37223;Laerm;28026;48.562;14.440;2023-07-02T03:09:17;43.26;35.36;52.86;;
37223;Laerm;28026;48.562;14.440;2023-07-02T03:11:48;38.25;32.93;53.74;;
37223;Laerm;28026;48.562;14.440;2023-07-02T03:14:19;43.12;29.92;66.24;;
37223;Laerm;28026;48.562;14.440;2023-07-02T03:16:50;39.26;31.68;58.96;;
37223;Laerm;28026;48.562;14.440;2023-07-02T03:19:21;37.83;32.93;55.56;;
37223;Laerm;28026;48.562;14.440;2023-07-02T03:21:52;39.44;31.68;55.23;;
37223;Laerm;28026;48.562;14.440;2023-07-02T03:24:23;40.46;32.93;48.42;;
37223;Laerm;28026;48.562;14.440;2023-07-02T03:26:54;39.63;31.68;56.58;;
37223;Laerm;28026;48.562;14.440;2023-07-02T03:29:25;38.17;31.68;50.19;;
37223;Laerm;28026;48.562;14.440;2023-07-02T03:31:56;42.10;34.31;60.89;;
37223;Laerm;28026;48.562;14.440;2023-07-02T03:34:28;39.82;33.90;57.01;;
37223;Laerm;28026;48.562;14.440;2023-07-02T03:36:59;40.83;34.31;61.24;;
37223;Laerm;28026;48.562;14.440;2023-07-02T03:39:29;43.04;37.70;61.59;;
37223;Laerm;28026;48.562;14.440;2023-07-02T03:42:00;41.42;33.44;56.67;;
37223;Laerm;28026;48.562;14.440;2023-07-02T03:44:31;39.33;32.35;67.03;;
37223;Laerm;28026;48.562;14.440;2023-07-02T03:47:02;40.07;32.93;61.85;;
37223;Laerm;28026;48.562;14.440;2023-07-02T03:49:33;38.90;30.89;55.23;;
37223;Laerm;28026;48.562;14.440;2023-07-02T03:52:05;41.46;34.69;50.32;;
37223;Laerm;28026;48.562;14.440;2023-07-02T03:54:36;38.86;32.58;51.82;;
37223;Laerm;28026;48.562;14.440;2023-07-02T03:57:07;41.99;31.68;65.13;;
37223;Laerm;28026;48.562;14.440;2023-07-02T03:59:38;38.29;32.93;49.14;;
37223;Laerm;28026;48.562;14.440;2023-07-02T04:02:08;40.35;33.44;52.83;;
37223;Laerm;28026;48.562;14.440;2023-07-02T04:04:39;42.00;34.31;59.63;;
37223;Laerm;28026;48.562;14.440;2023-07-02T04:07:10;39.14;32.35;51.95;;
37223;Laerm;28026;48.562;14.440;2023-07-02T04:09:41;38.08;31.68;49.45;;
37223;Laerm;28026;48.562;14.440;2023-07-02T04:12:12;43.59;32.35;55.88;;
37223;Laerm;28026;48.562;14.440;2023-07-02T04:14:43;44.32;38.21;59.31;;
37223;Laerm;28026;48.562;14.440;2023-07-02T04:17:14;42.04;33.44;55.66;;
37223;Laerm;28026;48.562;14.440;2023-07-02T04:19:45;40.01;32.58;53.52;;
37223;Laerm;28026;48.562;14.440;2023-07-02T04:22:16;38.67;31.68;48.05;;
37223;Laerm;28026;48.562;14.440;2023-07-02T04:24:47;37.29;29.92;51.80;;
37223;Laerm;28026;48.562;14.440;2023-07-02T04:27:20;40.13;32.35;53.42;;
37223;Laerm;28026;48.562;14.440;2023-07-02T04:29:53;43.82;38.05;54.08;;
37223;Laerm;28026;48.562;14.440;2023-07-02T04:32:25;41.02;36.20;50.23;;
37223;Laerm;28026;48.562;14.440;2023-07-02T04:34:56;40.83;36.20;49.75;;
37223;Laerm;28026;48.562;14.440;2023-07-02T04:37:28;40.64;35.04;59.93;;
37223;Laerm;28026;48.562;14.440;2023-07-02T04:39:59;39.77;33.90;52.87;;
37223;Laerm;28026;48.562;14.440;2023-07-02T04:42:30;41.11;33.44;64.56;;
37223;Laerm;28026;48.562;14.440;2023-07-02T04:45:04;46.65;34.69;71.26;;
37223;Laerm;28026;48.562;14.440;2023-07-02T04:47:35;39.48;34.31;52.09;;
37223;Laerm;28026;48.562;14.440;2023-07-02T04:50:07;39.44;31.68;59.09;;
37223;Laerm;28026;48.562;14.440;2023-07-02T04:52:38;39.73;33.90;53.43;;
37223;Laerm;28026;48.562;14.440;2023-07-02T04:55:10;41.31;34.31;48.45;;
37223;Laerm;28026;48.562;14.440;2023-07-02T04:57:41;42.52;36.45;56.04;;
37223;Laerm;28026;48.562;14.440;2023-07-02T05:00:13;40.43;32.93;49.73;;
37223;Laerm;28026;48.562;14.440;2023-07-02T05:02:44;39.62;32.35;51.91;;
37223;Laerm;28026;48.562;14.440;2023-07-02T05:05:17;41.21;35.04;57.19;;
37223;Laerm;28026;48.562;14.440;2023-07-02T05:07:48;40.36;30.89;52.64;;
37223;Laerm;28026;48.562;14.440;2023-07-02T05:10:19;40.59;33.90;52.75;;
37223;Laerm;28026;48.562;14.440;2023-07-02T05:12:50;42.94;32.93;67.59;;
37223;Laerm;28026;48.562;14.440;2023-07-02T05:15:21;39.65;31.68;52.21;;
37223;Laerm;28026;48.562;14.440;2023-07-02T05:17:51;43.68;35.04;71.05;;
37223;Laerm;28026;48.562;14.440;2023-07-02T05:20:22;42.71;35.04;60.77;;
37223;Laerm;28026;48.562;14.440;2023-07-02T05:22:53;41.93;33.44;66.84;;
37223;Laerm;28026;48.562;14.440;2023-07-02T05:25:24;43.77;34.31;67.78;;
37223;Laerm;28026;48.562;14.440;2023-07-02T05:27:55;39.33;33.44;49.88;;
37223;Laerm;28026;48.562;14.440;2023-07-02T05:30:26;44.96;36.69;73.28;;
37223;Laerm;28026;48.562;14.440;2023-07-02T05:32:57;43.41;35.36;66.57;;
37223;Laerm;28026;48.562;14.440;2023-07-02T05:35:28;50.28;35.36;76.30;;
37223;Laerm;28026;48.562;14.440;2023-07-02T05:37:59;50.61;35.04;78.35;;
37223;Laerm;28026;48.562;14.440;2023-07-02T05:40:29;42.68;35.04;66.40;;
37223;Laerm;28026;48.562;14.440;2023-07-02T05:43:01;45.60;35.94;70.31;;
37223;Laerm;28026;48.562;14.440;2023-07-02T05:45:32;42.01;35.36;66.02;;
37223;Laerm;28026;48.562;14.440;2023-07-02T05:48:03;49.15;36.69;76.55;;
37223;Laerm;28026;48.562;14.440;2023-07-02T05:50:34;53.24;36.91;77.77;;
37223;Laerm;28026;48.562;14.440;2023-07-02T05:53:05;48.04;35.94;73.52;;
37223;Laerm;28026;48.562;14.440;2023-07-02T05:55:36;44.59;35.94;66.44;;
37223;Laerm;28026;48.562;14.440;2023-07-02T05:58:07;41.83;35.66;57.66;;
37223;Laerm;28026;48.562;14.440;2023-07-02T06:00:38;42.11;35.04;62.39;;
37223;Laerm;28026;48.562;14.440;2023-07-02T06:03:10;44.63;35.94;72.46;;
37223;Laerm;28026;48.562;14.440;2023-07-02T06:05:40;42.66;35.36;64.78;;
37223;Laerm;28026;48.562;14.440;2023-07-02T06:08:11;41.88;36.45;53.07;;
37223;Laerm;28026;48.562;14.440;2023-07-02T06:10:46;48.89;37.32;71.48;;
37223;Laerm;28026;48.562;14.440;2023-07-02T06:13:17;48.38;36.91;75.63;;
37223;Laerm;28026;48.562;14.440;2023-07-02T06:15:48;57.30;36.91;84.54;;
37223;Laerm;28026;48.562;14.440;2023-07-02T06:18:19;44.21;37.32;67.38;;
37223;Laerm;28026;48.562;14.440;2023-07-02T06:20:51;42.62;36.45;70.92;;
37223;Laerm;28026;48.562;14.440;2023-07-02T06:23:22;40.38;35.36;54.94;;
37223;Laerm;28026;48.562;14.440;2023-07-02T06:25:53;50.90;35.04;79.99;;
37223;Laerm;28026;48.562;14.440;2023-07-02T06:28:29;51.24;36.10;77.59;;
37223;Laerm;28026;48.562;14.440;2023-07-02T06:31:01;47.81;35.36;77.28;;
37223;Laerm;28026;48.562;14.440;2023-07-02T06:33:32;46.69;35.36;76.23;;
37223;Laerm;28026;48.562;14.440;2023-07-02T06:36:03;43.83;35.36;69.06;;
37223;Laerm;28026;48.562;14.440;2023-07-02T06:38:34;44.01;36.20;74.44;;
37223;Laerm;28026;48.562;14.440;2023-07-02T06:41:05;39.58;34.69;56.32;;
37223;Laerm;28026;48.562;14.440;2023-07-02T06:43:35;44.52;34.69;70.78;;
37223;Laerm;28026;48.562;14.440;2023-07-02T06:46:10;52.60;36.69;82.74;;
37223;Laerm;28026;48.562;14.440;2023-07-02T06:48:41;49.74;35.66;77.01;;
37223;Laerm;28026;48.562;14.440;2023-07-02T06:51:12;46.84;35.36;73.18;;
37223;Laerm;28026;48.562;14.440;2023-07-02T06:53:45;46.22;35.04;72.44;;
37223;Laerm;28026;48.562;14.440;2023-07-02T06:56:16;48.44;36.45;78.52;;
37223;Laerm;28026;48.562;14.440;2023-07-02T06:58:47;54.88;35.31;82.17;;
37223;Laerm;28026;48.562;14.440;2023-07-02T07:01:18;46.51;37.70;71.18;;
37223;Laerm;28026;48.562;14.440;2023-07-02T07:03:49;41.30;35.04;64.40;;
37223;Laerm;28026;48.562;14.440;2023-07-02T07:06:19;43.00;35.66;68.06;;
37223;Laerm;28026;48.562;14.440;2023-07-02T07:08:51;44.08;34.69;73.67;;
37223;Laerm;28026;48.562;14.440;2023-07-02T07:11:22;40.54;35.04;59.51;;
37223;Laerm;28026;48.562;14.440;2023-07-02T07:13:52;51.65;35.94;76.87;;
37223;Laerm;28026;48.562;14.440;2023-07-02T07:16:24;47.53;37.52;76.37;;
37223;Laerm;28026;48.562;14.440;2023-07-02T07:18:54;44.48;35.36;70.10;;
37223;Laerm;28026;48.562;14.440;2023-07-02T07:21:25;50.89;36.91;73.62;;
37223;Laerm;28026;48.562;14.440;2023-07-02T07:23:56;49.11;35.66;75.27;;
37223;Laerm;28026;48.562;14.440;2023-07-02T07:26:27;53.89;38.05;78.44;;
37223;Laerm;28026;48.562;14.440;2023-07-02T07:28:58;49.33;36.45;73.27;;
37223;Laerm;28026;48.562;14.440;2023-07-02T07:31:29;49.46;36.20;72.46;;
37223;Laerm;28026;48.562;14.440;2023-07-02T07:34:00;49.92;35.66;78.65;;
37223;Laerm;28026;48.562;14.440;2023-07-02T07:36:31;49.37;37.12;74.70;;
37223;Laerm;28026;48.562;14.440;2023-07-02T07:39:02;58.85;38.21;82.42;;
37223;Laerm;28026;48.562;14.440;2023-07-02T07:41:33;56.00;37.35;80.90;;
37223;Laerm;28026;48.562;14.440;2023-07-02T07:44:04;56.10;37.32;87.55;;
37223;Laerm;28026;48.562;14.440;2023-07-02T07:46:34;55.61;37.52;82.37;;
37223;Laerm;28026;48.562;14.440;2023-07-02T07:49:05;55.56;38.21;82.16;;
37223;Laerm;28026;48.562;14.440;2023-07-02T07:51:36;60.17;40.53;87.13;;
37223;Laerm;28026;48.562;14.440;2023-07-02T07:54:07;55.22;39.34;82.25;;
37223;Laerm;28026;48.562;14.440;2023-07-02T07:56:38;62.59;38.99;90.43;;
37223;Laerm;28026;48.562;14.440;2023-07-02T07:59:09;63.36;39.34;91.23;;
37223;Laerm;28026;48.562;14.440;2023-07-02T08:01:41;55.65;37.32;81.55;;
37223;Laerm;28026;48.562;14.440;2023-07-02T08:04:13;58.91;37.88;86.80;;
37223;Laerm;28026;48.562;14.440;2023-07-02T08:06:43;58.70;38.81;82.47;;
37223;Laerm;28026;48.562;14.440;2023-07-02T08:09:14;53.28;36.69;76.01;;
37223;Laerm;28026;48.562;14.440;2023-07-02T08:11:46;57.08;37.70;82.95;;
37223;Laerm;28026;48.562;14.440;2023-07-02T08:14:17;56.88;36.69;83.41;;
37223;Laerm;28026;48.562;14.440;2023-07-02T08:16:51;47.63;37.52;72.84;;
37223;Laerm;28026;48.562;14.440;2023-07-02T08:19:22;64.45;38.37;93.23;;
37223;Laerm;28026;48.562;14.440;2023-07-02T08:21:53;65.19;40.98;91.84;;
37223;Laerm;28026;48.562;14.440;2023-07-02T08:24:24;62.03;39.35;93.14;;
37223;Laerm;28026;48.562;14.440;2023-07-02T08:26:55;60.59;36.45;90.10;;
37223;Laerm;28026;48.562;14.440;2023-07-02T08:29:25;63.85;36.91;87.47;;
37223;Laerm;28026;48.562;14.440;2023-07-02T08:31:57;58.62;36.20;89.59;;
37223;Laerm;28026;48.562;14.440;2023-07-02T08:34:28;52.34;37.70;81.19;;
37223;Laerm;28026;48.562;14.440;2023-07-02T08:36:59;44.24;38.05;67.39;;
37223;Laerm;28026;48.562;14.440;2023-07-02T08:39:30;53.34;38.95;75.94;;
37223;Laerm;28026;48.562;14.440;2023-07-02T08:42:01;55.99;38.05;80.09;;
37223;Laerm;28026;48.562;14.440;2023-07-02T08:44:32;49.06;37.32;72.13;;
37223;Laerm;28026;48.562;14.440;2023-07-02T08:47:05;63.90;37.52;95.38;;
37223;Laerm;28026;48.562;14.440;2023-07-02T08:49:37;53.29;38.52;77.05;;
37223;Laerm;28026;48.562;14.440;2023-07-02T08:52:07;46.76;36.91;68.74;;
37223;Laerm;28026;48.562;14.440;2023-07-02T08:54:39;49.74;37.70;75.35;;
37223;Laerm;28026;48.562;14.440;2023-07-02T08:57:10;61.99;38.21;93.82;;
37223;Laerm;28026;48.562;14.440;2023-07-02T08:59:41;58.00;38.52;86.04;;
37223;Laerm;28026;48.562;14.440;2023-07-02T09:02:12;62.35;39.08;92.15;;
37223;Laerm;28026;48.562;14.440;2023-07-02T09:04:43;57.63;38.21;88.17;;
37223;Laerm;28026;48.562;14.440;2023-07-02T09:07:13;51.17;38.52;75.80;;
37223;Laerm;28026;48.562;14.440;2023-07-02T09:09:50;50.38;38.18;75.43;;
37223;Laerm;28026;48.562;14.440;2023-07-02T09:12:29;68.92;39.08;92.55;;
37223;Laerm;28026;48.562;14.440;2023-07-02T09:15:05;61.30;39.70;87.56;;
37223;Laerm;28026;48.562;14.440;2023-07-02T09:17:38;55.57;36.91;82.51;;
37223;Laerm;28026;48.562;14.440;2023-07-02T09:20:09;52.69;36.91;80.57;;
37223;Laerm;28026;48.562;14.440;2023-07-02T09:22:41;57.86;36.69;84.10;;
37223;Laerm;28026;48.562;14.440;2023-07-02T09:25:11;64.32;38.67;91.73;;
37223;Laerm;28026;48.562;14.440;2023-07-02T09:27:42;63.47;37.88;85.83;;
37223;Laerm;28026;48.562;14.440;2023-07-02T09:30:15;50.46;38.52;78.15;;
37223;Laerm;28026;48.562;14.440;2023-07-02T09:32:46;53.74;37.32;83.68;;
37223;Laerm;28026;48.562;14.440;2023-07-02T09:35:17;50.36;36.45;78.73;;
37223;Laerm;28026;48.562;14.440;2023-07-02T09:37:48;44.17;35.94;65.04;;
37223;Laerm;28026;48.562;14.440;2023-07-02T09:40:20;42.70;35.94;68.01;;
37223;Laerm;28026;48.562;14.440;2023-07-02T09:42:51;45.68;35.66;74.00;;
37223;Laerm;28026;48.562;14.440;2023-07-02T09:45:24;47.45;38.05;70.79;;
37223;Laerm;28026;48.562;14.440;2023-07-02T09:47:57;46.61;35.66;69.68;;
37223;Laerm;28026;48.562;14.440;2023-07-02T09:50:30;46.57;35.94;72.04;;
37223;Laerm;28026;48.562;14.440;2023-07-02T09:53:01;65.83;38.05;94.26;;
37223;Laerm;28026;48.562;14.440;2023-07-02T09:55:33;47.46;37.12;68.30;;
37223;Laerm;28026;48.562;14.440;2023-07-02T09:58:05;47.99;36.45;79.97;;
37223;Laerm;28026;48.562;14.440;2023-07-02T10:00:36;47.70;34.31;75.86;;
37223;Laerm;28026;48.562;14.440;2023-07-02T10:03:07;52.60;36.69;85.93;;
37223;Laerm;28026;48.562;14.440;2023-07-02T10:05:38;49.64;35.66;77.97;;
37223;Laerm;28026;48.562;14.440;2023-07-02T10:08:16;56.15;36.20;82.02;;
37223;Laerm;28026;48.562;14.440;2023-07-02T10:10:52;60.45;38.05;92.68;;
37223;Laerm;28026;48.562;14.440;2023-07-02T10:13:29;62.76;38.05;91.23;;
37223;Laerm;28026;48.562;14.440;2023-07-02T10:16:06;58.91;35.04;88.35;;
37223;Laerm;28026;48.562;14.440;2023-07-02T10:18:38;57.03;35.66;81.72;;
37223;Laerm;28026;48.562;14.440;2023-07-02T10:21:17;45.75;35.94;73.02;;
37223;Laerm;28026;48.562;14.440;2023-07-02T10:23:48;59.42;38.37;86.05;;
37223;Laerm;28026;48.562;14.440;2023-07-02T10:26:19;53.38;36.69;79.10;;
37223;Laerm;28026;48.562;14.440;2023-07-02T10:29:00;46.68;36.45;72.34;;
37223;Laerm;28026;48.562;14.440;2023-07-02T10:31:31;53.09;37.87;77.19;;
37223;Laerm;28026;48.562;14.440;2023-07-02T10:34:02;49.14;37.53;73.47;;
37223;Laerm;28026;48.562;14.440;2023-07-02T10:36:33;49.74;36.20;76.36;;
37223;Laerm;28026;48.562;14.440;2023-07-02T10:39:04;48.38;36.20;72.66;;
37223;Laerm;28026;48.562;14.440;2023-07-02T10:41:35;46.18;37.32;68.69;;
37223;Laerm;28026;48.562;14.440;2023-07-02T10:44:09;46.81;35.36;71.57;;
37223;Laerm;28026;48.562;14.440;2023-07-02T10:46:49;60.14;37.12;86.41;;
37223;Laerm;28026;48.562;14.440;2023-07-02T10:49:33;45.46;33.90;73.32;;
37223;Laerm;28026;48.562;14.440;2023-07-02T10:52:04;53.82;36.69;81.57;;
37223;Laerm;28026;48.562;14.440;2023-07-02T10:54:45;55.50;36.20;80.54;;
37223;Laerm;28026;48.562;14.440;2023-07-02T10:57:19;48.40;35.94;72.48;;
37223;Laerm;28026;48.562;14.440;2023-07-02T10:59:52;55.96;36.91;84.23;;
37223;Laerm;28026;48.562;14.440;2023-07-02T11:02:23;50.82;36.20;77.61;;
37223;Laerm;28026;48.562;14.440;2023-07-02T11:04:56;57.55;37.17;83.66;;
37223;Laerm;28026;48.562;14.440;2023-07-02T11:07:27;51.51;36.91;77.41;;
37223;Laerm;28026;48.562;14.440;2023-07-02T11:09:58;54.67;36.45;79.38;;
37223;Laerm;28026;48.562;14.440;2023-07-02T11:12:31;56.97;36.45;81.73;;
37223;Laerm;28026;48.562;14.440;2023-07-02T11:15:13;47.86;36.45;74.27;;
37223;Laerm;28026;48.562;14.440;2023-07-02T11:17:44;48.76;38.21;76.28;;
37223;Laerm;28026;48.562;14.440;2023-07-02T11:20:15;67.84;37.32;99.92;;
37223;Laerm;28026;48.562;14.440;2023-07-02T11:22:46;56.57;37.32;86.29;;
37223;Laerm;28026;48.562;14.440;2023-07-02T11:25:20;59.55;39.08;84.24;;
37223;Laerm;28026;48.562;14.440;2023-07-02T11:28:05;56.80;36.91;84.09;;
37223;Laerm;28026;48.562;14.440;2023-07-02T11:30:46;56.70;38.21;81.36;;
37223;Laerm;28026;48.562;14.440;2023-07-02T11:33:17;60.91;37.88;85.82;;
37223;Laerm;28026;48.562;14.440;2023-07-02T11:35:48;53.47;37.32;77.60;;
37223;Laerm;28026;48.562;14.440;2023-07-02T11:38:19;64.14;38.67;90.40;;
37223;Laerm;28026;48.562;14.440;2023-07-02T11:40:49;48.94;38.52;75.39;;
37223;Laerm;28026;48.562;14.440;2023-07-02T11:43:20;60.05;38.21;88.00;;
37223;Laerm;28026;48.562;14.440;2023-07-02T11:45:51;52.28;38.37;77.41;;
37223;Laerm;28026;48.562;14.440;2023-07-02T11:48:22;52.20;34.69;75.64;;
37223;Laerm;28026;48.562;14.440;2023-07-02T11:50:53;66.22;38.21;97.92;;
37223;Laerm;28026;48.562;14.440;2023-07-02T11:53:24;65.30;38.02;94.33;;
37223;Laerm;28026;48.562;14.440;2023-07-02T11:55:55;65.52;38.37;90.33;;
37223;Laerm;28026;48.562;14.440;2023-07-02T11:58:26;53.48;37.70;79.26;;
37223;Laerm;28026;48.562;14.440;2023-07-02T12:00:57;68.17;38.21;91.96;;
37223;Laerm;28026;48.562;14.440;2023-07-02T12:03:28;69.37;39.70;99.29;;
37223;Laerm;28026;48.562;14.440;2023-07-02T12:06:00;55.51;38.95;84.16;;
37223;Laerm;28026;48.562;14.440;2023-07-02T12:08:31;65.16;37.32;93.60;;
37223;Laerm;28026;48.562;14.440;2023-07-02T12:11:02;65.07;39.34;89.94;;
37223;Laerm;28026;48.562;14.440;2023-07-02T12:13:33;57.10;38.52;81.19;;
37223;Laerm;28026;48.562;14.440;2023-07-02T12:16:04;56.51;37.52;84.70;;
37223;Laerm;28026;48.562;14.440;2023-07-02T12:18:35;59.06;34.69;84.27;;
37223;Laerm;28026;48.562;14.440;2023-07-02T12:21:06;61.38;35.86;84.85;;
37223;Laerm;28026;48.562;14.440;2023-07-02T12:23:37;52.09;35.66;75.74;;
37223;Laerm;28026;48.562;14.440;2023-07-02T12:26:08;51.76;34.69;77.97;;
37223;Laerm;28026;48.562;14.440;2023-07-02T12:28:38;53.30;33.90;79.67;;
37223;Laerm;28026;48.562;14.440;2023-07-02T12:31:09;66.40;39.46;91.40;;
37223;Laerm;28026;48.562;14.440;2023-07-02T12:33:41;64.51;38.37;90.70;;
37223;Laerm;28026;48.562;14.440;2023-07-02T12:36:12;68.40;38.05;93.43;;
37223;Laerm;28026;48.562;14.440;2023-07-02T12:38:44;52.22;36.98;76.93;;
37223;Laerm;28026;48.562;14.440;2023-07-02T12:41:15;59.66;36.69;87.19;;
37223;Laerm;28026;48.562;14.440;2023-07-02T12:43:46;60.29;38.21;86.28;;
37223;Laerm;28026;48.562;14.440;2023-07-02T12:46:17;62.18;38.05;89.70;;
37223;Laerm;28026;48.562;14.440;2023-07-02T12:48:48;62.30;36.91;88.34;;
37223;Laerm;28026;48.562;14.440;2023-07-02T12:51:18;53.72;37.88;80.14;;
37223;Laerm;28026;48.562;14.440;2023-07-02T12:53:49;58.40;38.05;86.05;;
37223;Laerm;28026;48.562;14.440;2023-07-02T12:56:20;45.68;37.52;77.41;;
37223;Laerm;28026;48.562;14.440;2023-07-02T12:58:51;50.74;36.91;79.73;;
37223;Laerm;28026;48.562;14.440;2023-07-02T13:01:22;60.30;39.08;91.17;;
37223;Laerm;28026;48.562;14.440;2023-07-02T13:03:54;62.28;41.68;87.98;;
37223;Laerm;28026;48.562;14.440;2023-07-02T13:06:25;59.90;38.81;84.34;;
37223;Laerm;28026;48.562;14.440;2023-07-02T13:08:56;54.88;37.70;81.80;;
37223;Laerm;28026;48.562;14.440;2023-07-02T13:11:27;60.71;38.37;86.85;;
37223;Laerm;28026;48.562;14.440;2023-07-02T13:13:58;62.75;37.70;85.26;;
37223;Laerm;28026;48.562;14.440;2023-07-02T13:16:29;62.45;38.81;90.91;;
37223;Laerm;28026;48.562;14.440;2023-07-02T13:19:00;52.57;38.02;78.83;;
37223;Laerm;28026;48.562;14.440;2023-07-02T13:21:32;60.96;39.08;90.02;;
37223;Laerm;28026;48.562;14.440;2023-07-02T13:24:03;56.71;36.69;84.15;;
37223;Laerm;28026;48.562;14.440;2023-07-02T13:26:34;53.91;36.45;79.36;;
37223;Laerm;28026;48.562;14.440;2023-07-02T13:29:05;54.31;35.66;82.00;;
37223;Laerm;28026;48.562;14.440;2023-07-02T13:31:35;49.61;36.98;73.41;;
37223;Laerm;28026;48.562;14.440;2023-07-02T13:34:06;55.78;37.70;81.63;;
37223;Laerm;28026;48.562;14.440;2023-07-02T13:36:37;56.47;36.20;83.00;;
37223;Laerm;28026;48.562;14.440;2023-07-02T13:39:08;55.48;35.66;79.31;;
37223;Laerm;28026;48.562;14.440;2023-07-02T13:41:39;54.54;37.32;78.52;;
37223;Laerm;28026;48.562;14.440;2023-07-02T13:44:10;55.38;36.91;85.83;;
37223;Laerm;28026;48.562;14.440;2023-07-02T13:46:44;50.69;36.20;78.50;;
37223;Laerm;28026;48.562;14.440;2023-07-02T13:49:15;49.92;34.69;76.71;;
37223;Laerm;28026;48.562;14.440;2023-07-02T13:51:46;56.38;38.05;87.86;;
37223;Laerm;28026;48.562;14.440;2023-07-02T13:54:17;71.37;40.03;99.89;;